createdAt,value
2023-02-06T00:01:34.304Z,9.30
2023-02-06T00:04:01.283Z,6.40
2023-02-06T00:06:28.266Z,4.85
2023-02-06T00:08:55.162Z,5.45
2023-02-06T00:11:22.071Z,5.28
2023-02-06T00:13:49.663Z,5.10
2023-02-06T00:16:20.904Z,5.53
2023-02-06T00:18:48.099Z,4.43
2023-02-06T00:21:15.615Z,7.72
2023-02-06T00:23:42.449Z,4.45
2023-02-06T00:26:09.401Z,4.40
2023-02-06T00:28:37.708Z,5.55
2023-02-06T00:31:08.575Z,5.00
2023-02-06T00:33:36.121Z,4.95
2023-02-06T00:36:03.401Z,5.85
2023-02-06T00:38:30.757Z,5.57
2023-02-06T00:40:58.258Z,4.80
2023-02-06T00:43:25.393Z,5.20
2023-02-06T00:45:53.330Z,5.03
2023-02-06T00:48:20.427Z,5.53
2023-02-06T00:50:52.367Z,4.55
2023-02-06T00:53:19.862Z,4.75
2023-02-06T00:55:46.692Z,7.07
2023-02-06T00:58:13.566Z,5.88
2023-02-06T01:00:43.689Z,6.80
2023-02-06T01:03:10.589Z,5.20
2023-02-06T01:05:37.698Z,4.32
2023-02-06T01:08:04.962Z,6.22
2023-02-06T01:10:32.582Z,4.35
2023-02-06T01:13:00.152Z,4.30
2023-02-06T01:15:27.112Z,4.20
2023-02-06T01:17:54.009Z,4.47
2023-02-06T01:20:21.748Z,5.60
2023-02-06T01:22:48.672Z,4.93
2023-02-06T01:25:15.613Z,4.72
2023-02-06T01:27:42.626Z,4.28
2023-02-06T01:30:11.017Z,6.43
2023-02-06T01:32:41.884Z,5.30
2023-02-06T01:35:11.340Z,4.15
2023-02-06T01:37:39.101Z,4.95
2023-02-06T01:40:08.869Z,3.83
2023-02-06T01:42:39.109Z,3.65
2023-02-06T01:45:25.832Z,4.83
2023-02-06T01:47:59.352Z,3.92
2023-02-06T01:50:26.353Z,3.60
2023-02-06T01:52:53.256Z,4.65
2023-02-06T01:55:20.170Z,5.40
2023-02-06T01:57:47.067Z,4.15
2023-02-06T02:00:14.148Z,4.45
2023-02-06T02:02:45.059Z,4.05
2023-02-06T02:05:12.803Z,4.35
2023-02-06T02:08:02.705Z,4.57
2023-02-06T02:10:31.006Z,5.50
2023-02-06T02:12:58.035Z,4.25
2023-02-06T02:15:39.319Z,4.72
2023-02-06T02:18:26.391Z,4.60
2023-02-06T02:21:22.895Z,3.85
2023-02-06T02:23:56.794Z,4.75
2023-02-06T02:26:51.269Z,3.67
2023-02-06T02:29:26.948Z,4.55
2023-02-06T02:32:11.447Z,4.85
2023-02-06T02:34:47.450Z,4.22
2023-02-06T02:37:41.908Z,3.40
2023-02-06T02:40:15.002Z,4.78
2023-02-06T02:43:01.473Z,3.22
2023-02-06T02:45:43.589Z,3.55
2023-02-06T02:48:18.764Z,3.60
2023-02-06T02:50:47.617Z,4.40
2023-02-06T02:53:14.915Z,4.93
2023-02-06T02:55:42.218Z,4.32
2023-02-06T02:58:32.629Z,3.50
2023-02-06T03:01:08.417Z,5.20
2023-02-06T03:03:37.226Z,3.72
2023-02-06T03:06:13.218Z,3.30
2023-02-06T03:09:19.916Z,4.15
2023-02-06T03:11:55.602Z,3.50
2023-02-06T03:14:38.193Z,5.05
2023-02-06T03:17:10.776Z,4.32
2023-02-06T03:19:46.270Z,2.45
2023-02-06T03:22:14.848Z,3.47
2023-02-06T03:24:41.699Z,3.08
2023-02-06T03:27:14.063Z,3.72
2023-02-06T03:29:42.480Z,4.43
2023-02-06T03:32:34.153Z,4.63
2023-02-06T03:35:13.546Z,4.63
2023-02-06T03:37:40.531Z,4.03
2023-02-06T03:40:08.947Z,4.30
2023-02-06T03:42:40.757Z,4.15
2023-02-06T03:45:16.966Z,6.32
2023-02-06T03:47:46.321Z,3.20
2023-02-06T03:50:14.996Z,2.47
2023-02-06T03:52:46.807Z,2.65
2023-02-06T03:55:17.968Z,2.30
2023-02-06T03:57:47.762Z,2.65
2023-02-06T04:00:15.296Z,1.65
2023-02-06T04:02:46.064Z,6.00
2023-02-06T04:05:13.903Z,4.05
2023-02-06T04:07:40.788Z,4.53
2023-02-06T04:10:07.872Z,4.15
2023-02-06T04:12:35.096Z,2.40
2023-02-06T04:15:02.025Z,2.33
2023-02-06T04:17:46.504Z,1.40
2023-02-06T04:20:15.864Z,2.33
2023-02-06T04:22:42.728Z,2.35
2023-02-06T04:25:09.721Z,2.45
2023-02-06T04:27:37.386Z,2.92
2023-02-06T04:30:05.479Z,3.45
2023-02-06T04:32:32.331Z,2.42
2023-02-06T04:34:59.121Z,2.05
2023-02-06T04:37:25.906Z,2.88
2023-02-06T04:39:52.838Z,3.50
2023-02-06T04:42:19.705Z,2.30
2023-02-06T04:44:46.565Z,3.47
2023-02-06T04:47:13.444Z,2.67
2023-02-06T04:49:40.260Z,2.90
2023-02-06T04:52:07.141Z,2.65
2023-02-06T04:54:33.994Z,3.58
2023-02-06T04:57:00.801Z,2.25
2023-02-06T04:59:27.751Z,2.22
2023-02-06T05:01:54.588Z,2.20
2023-02-06T05:04:21.500Z,2.25
2023-02-06T05:06:48.363Z,3.00
2023-02-06T05:09:15.244Z,3.28
2023-02-06T05:11:42.225Z,2.65
2023-02-06T05:14:09.121Z,2.13
2023-02-06T05:16:36.033Z,2.65
2023-02-06T05:19:02.908Z,3.30
2023-02-06T05:21:29.849Z,2.67
2023-02-06T05:23:56.710Z,2.10
2023-02-06T05:26:23.790Z,2.83
2023-02-06T05:28:50.672Z,2.42
2023-02-06T05:31:20.636Z,2.60
2023-02-06T05:33:51.144Z,2.70
2023-02-06T05:36:20.312Z,2.97
2023-02-06T05:38:48.281Z,2.97
2023-02-06T05:41:16.004Z,2.88
2023-02-06T05:43:43.114Z,2.38
2023-02-06T05:46:11.269Z,2.05
2023-02-06T05:48:38.537Z,1.98
2023-02-06T05:51:05.674Z,2.75
2023-02-06T05:53:32.692Z,2.67
2023-02-06T05:55:59.534Z,5.80
2023-02-06T05:58:26.500Z,2.90
2023-02-06T06:00:53.412Z,2.28
2023-02-06T06:03:20.301Z,2.60
2023-02-06T06:05:47.951Z,2.80
2023-02-06T06:08:15.543Z,3.33
2023-02-06T06:10:42.421Z,2.67
2023-02-06T06:13:09.457Z,3.25
2023-02-06T06:15:36.586Z,4.32
2023-02-06T06:18:03.923Z,3.20
2023-02-06T06:20:30.704Z,3.75
2023-02-06T06:22:57.569Z,2.85
2023-02-06T06:25:24.426Z,4.40
2023-02-06T06:27:51.277Z,3.88
2023-02-06T06:30:18.353Z,2.53
2023-02-06T06:32:45.200Z,3.45
2023-02-06T06:35:12.069Z,3.85
2023-02-06T06:37:39.084Z,3.60
2023-02-06T06:40:06.403Z,3.60
2023-02-06T06:42:33.290Z,2.75
2023-02-06T06:45:00.152Z,3.80
2023-02-06T06:47:26.964Z,2.90
2023-02-06T06:49:53.783Z,4.85
2023-02-06T06:52:25.279Z,6.32
2023-02-06T06:54:53.144Z,5.93
2023-02-06T06:57:21.556Z,3.58
2023-02-06T06:59:48.477Z,6.20
2023-02-06T07:02:15.967Z,5.55
2023-02-06T07:04:43.287Z,4.95
2023-02-06T07:07:10.282Z,5.25
2023-02-06T07:09:37.256Z,4.50
2023-02-06T07:12:04.402Z,4.95
2023-02-06T07:14:31.282Z,3.78
2023-02-06T07:16:59.872Z,5.50
2023-02-06T07:19:26.778Z,4.13
2023-02-06T07:21:53.666Z,3.95
2023-02-06T07:24:20.565Z,3.20
2023-02-06T07:26:47.381Z,2.40
2023-02-06T07:29:14.258Z,3.85
2023-02-06T07:31:41.166Z,4.63
2023-02-06T07:34:08.093Z,4.35
2023-02-06T07:36:35.718Z,3.97
2023-02-06T07:39:04.110Z,3.85
2023-02-06T07:41:31.077Z,5.20
2023-02-06T07:43:57.934Z,3.97
2023-02-06T07:46:24.862Z,4.68
2023-02-06T07:48:51.820Z,5.13
2023-02-06T07:51:18.861Z,4.43
2023-02-06T07:53:45.723Z,4.35
2023-02-06T07:56:15.257Z,4.22
2023-02-06T07:58:42.810Z,4.82
2023-02-06T08:01:10.772Z,4.03
2023-02-06T08:03:37.642Z,3.35
2023-02-06T08:06:12.689Z,3.38
2023-02-06T08:08:39.509Z,4.18
2023-02-06T08:11:12.589Z,3.83
2023-02-06T08:13:39.875Z,3.42
2023-02-06T08:16:10.502Z,4.13
2023-02-06T08:18:38.182Z,2.78
2023-02-06T08:21:07.775Z,3.17
2023-02-06T08:23:34.656Z,2.97
2023-02-06T08:26:13.221Z,3.95
2023-02-06T08:28:42.281Z,3.72
2023-02-06T08:31:31.373Z,5.22
2023-02-06T08:33:58.861Z,4.93
2023-02-06T08:36:27.062Z,5.35
2023-02-06T08:38:54.156Z,5.07
2023-02-06T08:41:24.665Z,4.60
2023-02-06T08:43:54.427Z,5.28
2023-02-06T08:46:23.346Z,5.97
2023-02-06T08:48:58.988Z,5.45
2023-02-06T08:51:29.245Z,4.60
2023-02-06T08:54:01.136Z,5.60
2023-02-06T08:56:28.944Z,5.88
2023-02-06T08:58:59.549Z,6.75
2023-02-06T09:01:27.953Z,6.68
2023-02-06T09:03:56.602Z,6.05
2023-02-06T09:06:25.443Z,5.28
2023-02-06T09:08:53.039Z,6.53
2023-02-06T09:11:21.914Z,5.65
2023-02-06T09:13:49.746Z,6.20
2023-02-06T09:16:21.166Z,6.57
2023-02-06T09:18:48.930Z,6.38
2023-02-06T09:21:17.453Z,6.55
2023-02-06T09:23:47.661Z,6.03
2023-02-06T09:26:16.873Z,5.43
2023-02-06T09:28:43.879Z,6.25
2023-02-06T09:31:11.770Z,5.82
2023-02-06T09:33:40.030Z,6.35
2023-02-06T09:36:10.865Z,6.22
2023-02-06T09:38:47.479Z,6.25
2023-02-06T09:41:17.990Z,5.93
2023-02-06T09:44:05.927Z,6.72
2023-02-06T09:46:42.329Z,6.47
2023-02-06T09:49:22.053Z,5.72
2023-02-06T09:51:51.907Z,5.85
2023-02-06T09:54:41.104Z,6.47
2023-02-06T09:57:49.568Z,6.35
2023-02-06T10:00:27.754Z,6.20
2023-02-06T10:03:13.141Z,5.72
2023-02-06T10:06:13.987Z,5.45
2023-02-06T10:09:14.122Z,5.25
2023-02-06T10:11:45.760Z,5.45
2023-02-06T10:14:26.691Z,5.97
2023-02-06T10:17:10.431Z,5.20
2023-02-06T10:19:59.685Z,5.63
2023-02-06T10:22:45.017Z,5.60
2023-02-06T10:25:19.032Z,5.63
2023-02-06T10:27:49.990Z,5.65
2023-02-06T10:30:19.761Z,6.53
2023-02-06T10:33:07.878Z,5.18
2023-02-06T10:36:09.772Z,5.00
2023-02-06T10:39:05.971Z,5.32
2023-02-06T10:41:56.618Z,4.90
2023-02-06T10:44:36.378Z,6.13
2023-02-06T10:47:18.049Z,5.10
2023-02-06T10:49:52.339Z,4.90
2023-02-06T10:52:32.793Z,5.10
2023-02-06T10:55:34.186Z,6.25
2023-02-06T10:58:16.996Z,5.40
2023-02-06T11:00:45.827Z,6.00
2023-02-06T11:03:25.819Z,4.93
2023-02-06T11:05:53.586Z,5.65
2023-02-06T11:08:26.361Z,3.90
2023-02-06T11:10:54.495Z,3.85
2023-02-06T11:13:34.392Z,5.05
2023-02-06T11:16:14.238Z,3.97
2023-02-06T11:18:45.346Z,4.15
2023-02-06T11:21:14.947Z,5.10
2023-02-06T11:23:42.484Z,4.75
2023-02-06T11:26:17.093Z,4.55
2023-02-06T11:28:54.555Z,4.80
2023-02-06T11:31:39.490Z,3.30
2023-02-06T11:34:06.849Z,3.78
2023-02-06T11:36:37.374Z,5.05
2023-02-06T11:39:23.252Z,4.78
2023-02-06T11:42:21.228Z,5.32
2023-02-06T11:44:48.968Z,4.72
2023-02-06T11:47:37.593Z,3.83
2023-02-06T11:50:14.166Z,3.88
2023-02-06T11:52:47.004Z,3.83
2023-02-06T11:55:42.549Z,3.88
2023-02-06T11:58:12.494Z,3.40
2023-02-06T12:01:16.409Z,3.67
2023-02-06T12:03:56.972Z,3.13
2023-02-06T12:06:31.006Z,3.65
2023-02-06T12:09:00.673Z,3.35
2023-02-06T12:11:55.206Z,4.60
2023-02-06T12:14:29.750Z,3.30
2023-02-06T12:16:58.270Z,3.58
2023-02-06T12:19:31.716Z,2.88
2023-02-06T12:22:02.797Z,3.10
2023-02-06T12:24:35.048Z,2.95
2023-02-06T12:29:40.308Z,4.13
2023-02-06T12:32:18.398Z,4.57
2023-02-06T12:35:04.295Z,3.88
2023-02-06T12:37:40.956Z,3.58
2023-02-06T12:40:44.765Z,3.20
2023-02-06T12:43:16.674Z,2.92
2023-02-06T12:46:05.642Z,2.65
2023-02-06T12:49:02.066Z,3.33
2023-02-06T12:51:35.144Z,3.20
2023-02-06T12:54:10.689Z,3.22
2023-02-06T12:56:45.695Z,2.53
2023-02-06T12:59:57.828Z,2.80
2023-02-06T13:03:03.790Z,3.28
2023-02-06T13:05:41.372Z,3.38
2023-02-06T13:08:27.718Z,3.38
2023-02-06T13:11:11.765Z,3.65
2023-02-06T13:13:40.479Z,3.10
2023-02-06T13:16:09.131Z,3.45
2023-02-06T13:18:42.292Z,2.90
2023-02-06T13:21:25.243Z,3.15
2023-02-06T13:24:14.790Z,2.90
2023-02-06T13:26:55.395Z,3.53
2023-02-06T13:29:23.367Z,4.03
2023-02-06T13:31:50.222Z,2.33
2023-02-06T13:34:18.613Z,2.67
2023-02-06T13:36:50.091Z,3.38
2023-02-06T13:39:29.375Z,2.92
2023-02-06T13:42:01.866Z,3.00
2023-02-06T13:44:33.737Z,3.05
2023-02-06T13:47:10.113Z,2.97
2023-02-06T13:49:55.670Z,2.85
2023-02-06T13:52:32.549Z,2.78
2023-02-06T13:55:17.954Z,2.95
2023-02-06T13:58:10.503Z,3.45
2023-02-06T14:00:42.115Z,3.35
2023-02-06T14:03:31.887Z,3.03
2023-02-06T14:06:20.755Z,3.13
2023-02-06T14:09:43.116Z,3.05
2023-02-06T14:12:35.245Z,2.65
2023-02-06T14:15:20.521Z,3.85
2023-02-06T14:17:57.233Z,3.45
2023-02-06T14:20:39.300Z,2.92
2023-02-06T14:23:25.461Z,2.92
2023-02-06T14:26:20.750Z,2.70
2023-02-06T14:29:05.907Z,2.72
2023-02-06T14:32:19.816Z,3.70
2023-02-06T14:35:01.750Z,3.60
2023-02-06T14:37:28.618Z,2.70
2023-02-06T14:39:57.691Z,3.15
2023-02-06T14:42:37.096Z,2.85
2023-02-06T14:45:38.520Z,3.90
2023-02-06T14:48:20.014Z,2.95
2023-02-06T14:50:51.528Z,3.05
2023-02-06T14:53:34.627Z,4.03
2023-02-06T14:56:16.198Z,2.78
2023-02-06T14:58:46.356Z,2.53
2023-02-06T15:01:21.276Z,2.65
2023-02-06T15:03:52.549Z,2.10
2023-02-06T15:06:35.133Z,2.35
2023-02-06T15:09:02.007Z,2.60
2023-02-06T15:11:32.530Z,2.97
2023-02-06T15:14:03.289Z,2.50
2023-02-06T15:16:30.962Z,2.50
2023-02-06T15:19:21.896Z,2.72
2023-02-06T15:21:50.039Z,2.30
2023-02-06T15:24:52.474Z,2.78
2023-02-06T15:27:32.978Z,3.70
2023-02-06T15:30:01.630Z,2.20
2023-02-06T15:32:31.257Z,2.80
2023-02-06T15:34:59.583Z,2.88
2023-02-06T15:37:35.437Z,2.53
2023-02-06T15:40:22.929Z,2.70
2023-02-06T15:42:51.075Z,2.55
2023-02-06T15:45:24.916Z,2.33
2023-02-06T15:47:53.306Z,2.90
2023-02-06T15:50:23.809Z,3.60
2023-02-06T15:52:50.937Z,2.40
2023-02-06T15:55:35.450Z,2.60
2023-02-06T15:58:04.527Z,2.05
2023-02-06T16:00:37.155Z,2.30
2023-02-06T16:03:08.728Z,2.42
2023-02-06T16:05:40.591Z,2.37
2023-02-06T16:08:21.784Z,2.50
2023-02-06T16:10:51.820Z,3.25
2023-02-06T16:13:23.319Z,3.00
2023-02-06T16:16:02.402Z,3.08
2023-02-06T16:18:38.495Z,2.95
2023-02-06T16:21:17.345Z,2.40
2023-02-06T16:23:47.100Z,2.60
2023-02-06T16:26:23.208Z,3.03
2023-02-06T16:28:56.251Z,2.67
2023-02-06T16:31:24.728Z,3.00
2023-02-06T16:33:53.318Z,2.65
2023-02-06T16:36:21.749Z,2.08
2023-02-06T16:39:02.690Z,2.83
2023-02-06T16:41:30.983Z,2.65
2023-02-06T16:43:58.806Z,3.42
2023-02-06T16:46:26.977Z,2.30
2023-02-06T16:48:55.362Z,2.28
2023-02-06T16:51:25.961Z,2.50
2023-02-06T16:53:53.494Z,2.70
2023-02-06T16:56:21.550Z,3.65
2023-02-06T16:58:49.534Z,3.40
2023-02-06T17:01:25.198Z,2.78
2023-02-06T17:03:53.086Z,2.97
2023-02-06T17:06:23.739Z,3.25
2023-02-06T17:08:53.000Z,2.95
2023-02-06T17:11:20.117Z,2.83
2023-02-06T17:13:47.008Z,3.05
2023-02-06T17:16:19.838Z,2.78
2023-02-06T17:18:46.993Z,2.83
2023-02-06T17:21:16.542Z,3.00
2023-02-06T17:23:44.273Z,2.03
2023-02-06T17:26:17.564Z,2.67
2023-02-06T17:28:45.124Z,2.05
2023-02-06T17:31:12.329Z,2.05
2023-02-06T17:33:39.470Z,2.72
2023-02-06T17:36:12.799Z,2.53
2023-02-06T17:38:39.621Z,2.75
2023-02-06T17:41:06.413Z,2.92
2023-02-06T17:43:36.149Z,3.97
2023-02-06T17:46:07.003Z,3.30
2023-02-06T17:48:36.729Z,2.25
2023-02-06T17:51:05.279Z,3.95
2023-02-06T17:53:32.172Z,2.78
2023-02-06T17:56:05.218Z,2.42
2023-02-06T17:58:32.280Z,2.33
2023-02-06T18:00:59.160Z,3.33
2023-02-06T18:03:26.183Z,3.40
2023-02-06T18:06:00.460Z,2.97
2023-02-06T18:08:29.014Z,3.45
2023-02-06T18:10:56.273Z,3.70
2023-02-06T18:13:24.338Z,3.78
2023-02-06T18:15:57.005Z,4.72
2023-02-06T18:18:24.675Z,3.75
2023-02-06T18:20:52.274Z,3.10
2023-02-06T18:23:19.436Z,3.72
2023-02-06T18:25:46.368Z,2.85
2023-02-06T18:28:14.813Z,3.47
2023-02-06T18:30:42.153Z,4.20
2023-02-06T18:33:11.267Z,5.20
2023-02-06T18:35:39.653Z,4.53
2023-02-06T18:38:09.725Z,4.93
2023-02-06T18:40:39.094Z,3.78
2023-02-06T18:43:06.697Z,3.75
2023-02-06T18:45:36.090Z,4.40
2023-02-06T18:48:05.185Z,3.80
2023-02-06T18:50:32.763Z,4.50
2023-02-06T18:52:59.834Z,4.70
2023-02-06T18:55:27.063Z,3.47
2023-02-06T18:57:54.343Z,4.22
2023-02-06T19:00:23.116Z,3.85
2023-02-06T19:02:50.542Z,5.07
2023-02-06T19:05:17.783Z,4.97
2023-02-06T19:07:49.620Z,4.47
2023-02-06T19:10:16.922Z,3.90
2023-02-06T19:12:44.447Z,3.80
2023-02-06T19:15:11.869Z,4.43
2023-02-06T19:17:39.106Z,3.92
2023-02-06T19:20:06.589Z,3.65
2023-02-06T19:22:35.179Z,5.05
2023-02-06T19:25:03.520Z,4.85
2023-02-06T19:27:30.502Z,4.65
2023-02-06T19:29:57.333Z,5.03
2023-02-06T19:32:26.368Z,4.97
2023-02-06T19:34:53.216Z,4.78
2023-02-06T19:37:20.227Z,5.47
2023-02-06T19:39:47.161Z,7.88
2023-02-06T19:42:16.914Z,5.43
2023-02-06T19:44:44.084Z,4.57
2023-02-06T19:47:11.510Z,4.53
2023-02-06T19:49:38.579Z,4.90
2023-02-06T19:52:05.727Z,4.60
2023-02-06T19:54:32.548Z,5.05
2023-02-06T19:57:00.602Z,5.72
2023-02-06T19:59:29.085Z,4.80
2023-02-06T20:02:02.675Z,4.88
2023-02-06T20:04:34.098Z,4.60
2023-02-06T20:07:01.819Z,4.87
2023-02-06T20:09:29.460Z,4.50
2023-02-06T20:11:57.534Z,5.78
2023-02-06T20:14:26.864Z,4.97
2023-02-06T20:16:53.942Z,5.80
2023-02-06T20:19:24.730Z,5.60
2023-02-06T20:21:56.195Z,5.25
2023-02-06T20:24:25.549Z,5.03
2023-02-06T20:26:55.996Z,4.75
2023-02-06T20:29:26.686Z,4.00
2023-02-06T20:31:55.350Z,3.92
2023-02-06T20:34:23.238Z,5.38
2023-02-06T20:36:51.139Z,4.32
2023-02-06T20:39:19.476Z,5.03
2023-02-06T20:41:46.619Z,5.65
2023-02-06T20:44:14.254Z,4.97
2023-02-06T20:46:42.452Z,4.75
2023-02-06T20:49:19.452Z,4.50
2023-02-06T20:51:46.786Z,6.53
2023-02-06T20:54:13.666Z,5.93
2023-02-06T20:56:41.015Z,5.45
2023-02-06T20:59:11.808Z,6.18
2023-02-06T21:01:39.971Z,5.40
2023-02-06T21:04:09.157Z,5.57
2023-02-06T21:06:37.522Z,5.85
2023-02-06T21:09:06.147Z,6.57
2023-02-06T21:11:36.159Z,7.97
2023-02-06T21:14:04.939Z,6.15
2023-02-06T21:16:33.311Z,4.90
2023-02-06T21:19:01.359Z,5.88
2023-02-06T21:21:28.556Z,5.35
2023-02-06T21:23:55.881Z,5.93
2023-02-06T21:26:23.910Z,5.88
2023-02-06T21:28:51.421Z,5.65
2023-02-06T21:31:36.915Z,6.80
2023-02-06T21:34:13.155Z,5.50
2023-02-06T21:36:40.954Z,5.63
2023-02-06T21:39:08.868Z,6.70
2023-02-06T21:41:36.552Z,5.30
2023-02-06T21:44:04.085Z,6.50
2023-02-06T21:46:31.073Z,6.10
2023-02-06T21:48:58.578Z,5.60
2023-02-06T21:51:25.508Z,7.18
2023-02-06T21:53:52.402Z,4.63
2023-02-06T21:56:25.333Z,4.75
2023-02-06T21:58:52.794Z,5.18
2023-02-06T22:01:23.556Z,4.00
2023-02-06T22:03:50.878Z,4.07
2023-02-06T22:06:19.994Z,5.85
2023-02-06T22:08:51.856Z,4.05
2023-02-06T22:11:23.018Z,5.45
2023-02-06T22:13:50.769Z,5.60
2023-02-06T22:16:20.861Z,5.00
2023-02-06T22:18:48.195Z,4.35
2023-02-06T22:21:17.939Z,6.22
2023-02-06T22:23:46.075Z,5.63
2023-02-06T22:26:15.172Z,5.60
2023-02-06T22:28:42.234Z,6.05
2023-02-06T22:31:15.156Z,5.03
2023-02-06T22:33:42.651Z,6.80
2023-02-06T22:36:11.826Z,6.43
2023-02-06T22:38:39.063Z,6.00
2023-02-06T22:41:08.796Z,7.28
2023-02-06T22:43:37.323Z,7.30
2023-02-06T22:46:05.408Z,7.45
2023-02-06T22:48:33.650Z,6.68
2023-02-06T22:51:08.980Z,6.80
2023-02-06T22:53:37.603Z,6.55
2023-02-06T22:56:26.022Z,5.72
2023-02-06T22:58:57.185Z,6.60
2023-02-06T23:01:26.345Z,6.40
2023-02-06T23:03:54.584Z,7.38
2023-02-06T23:06:21.940Z,7.38
2023-02-06T23:08:48.985Z,8.63
2023-02-06T23:11:16.430Z,7.20
2023-02-06T23:13:43.514Z,8.98
2023-02-06T23:16:10.829Z,8.00
2023-02-06T23:18:38.264Z,9.05
2023-02-06T23:21:09.926Z,7.85
2023-02-06T23:23:37.636Z,8.70
2023-02-06T23:26:10.145Z,7.45
2023-02-06T23:28:38.281Z,9.45
2023-02-06T23:31:06.098Z,8.25
2023-02-06T23:33:33.980Z,7.70
2023-02-06T23:36:13.488Z,9.45
2023-02-06T23:38:41.225Z,7.53
2023-02-06T23:41:11.424Z,7.40
2023-02-06T23:43:39.299Z,8.52
2023-02-06T23:46:08.148Z,7.00
2023-02-06T23:48:35.964Z,8.20
2023-02-06T23:51:02.965Z,7.03
2023-02-06T23:53:30.435Z,8.63
2023-02-06T23:55:57.820Z,10.05
2023-02-06T23:58:24.884Z,8.90
